Marbleton, Wyoming
Current Conditions -  °F | °C
As of 7:53 AM on Monday 22 Dec 2014 (Local Time) from KBPI Reporting Station
Overcast Overcast  
Wind Chill: 16°   Ceiling: 4900
Heat Index: 22°   Visibility: 10mi
Dew Point: 19°   Wind: 5mph
Humidity: 89%   Direction: 290°WNW
Pressure: 29.83"   Gusts: NA
Location:  42.5665°N, 110.311°W
Report Text: KBPI 221453Z AUTO 29004KT 10SM BKN049 OVC060 M06/M07 A2983 RMK AO2 SLP106 60000 T10561072 58003
Loading
Personal Weather Stations






























Interactive Weather Map New forecast layout! Learn more

10-Day Weather Forecast

Advertisements
Track Severe Weather on mobile